Flight Track Log - Related Links

Times and Time Zones

All times are in EDT time to prevent confusion due to time zone crossing. See the SWA508 flight status page for this flight to view local times or setup timezone preferences in your user account.

Time Position Orientation Groundspeed Altitude Reporting Facility
EDT Latitude Longitude Course Direction KTS MPH feet Rate Location/Type
Sun 03:22:07 PM 36.1000 -86.6833 180° South 158 182 1,300  Level Nashville TRACON
Sun 03:22:19 PM 36.0833 -86.6833 180° South 161 185 1,900 2,000 Climbing Nashville TRACON
Sun 03:23:25 PM 36.0667 -86.6333 112° Southeast 225 259 3,900 2,367 Climbing Nashville TRACON
Sun 03:24:08 PM 36.0750 -86.5797 79° East 219 252 6,200 2,743 Climbing Memphis Center
Sun 03:25:10 PM 36.0953 -86.4922 74° East 257 296 8,700 2,565 Climbing Memphis Center
Sun 03:26:12 PM 36.1214 -86.3886 73° East 304 350 11,500 2,952 Climbing Memphis Center
Sun 03:27:14 PM 36.1506 -86.2744 72° East 336 387 14,800 1,824 Climbing Memphis Center
Sun 03:28:17 PM 36.1806 -86.1531 73° East 358 412 15,300 1,584 Climbing Memphis Center
Sun 03:29:19 PM 36.2269 -86.0125 68° East 374 430 18,100 2,516 Climbing Memphis Center
Sun 03:30:21 PM 36.2831 -85.8894 60° Northeast 401 461 20,500 2,274 Climbing Memphis Center
Sun 03:31:23 PM 36.3378 -85.7658 61° Northeast 413 475 22,800 2,169 Climbing Memphis Center
Sun 03:32:31 PM 36.4100 -85.6128 60° Northeast 429 494 25,200 1,892 Climbing Indianapolis Center
Sun 03:33:33 PM 36.4733 -85.4772 60° Northeast 448 516 26,900 1,790 Climbing Indianapolis Center
Sun 03:34:35 PM 36.5392 -85.3372 60° Northeast 462 532 28,900 1,790 Climbing Indianapolis Center
Sun 03:35:37 PM 36.5878 -85.1831 69° East 474 545 30,600 1,694 Climbing Indianapolis Center
Sun 03:36:39 PM 36.6608 -85.0422 57° Northeast 483 556 32,400 1,887 Climbing Indianapolis Center
Sun 03:37:41 PM 36.7344 -84.9067 56° Northeast 474 545 34,500 1,452 Climbing Indianapolis Center
Sun 03:38:43 PM 36.8061 -84.7669 57° Northeast 475 547 35,400 1,065 Climbing Indianapolis Center
Sun 03:39:45 PM 36.8914 -84.5931 58° Northeast 485 558 36,700 1,306 Climbing Indianapolis Center
Sun 03:40:47 PM 36.9633 -84.4453 59° Northeast 493 567 38,100 1,113 Climbing Indianapolis Center
Sun 03:41:49 PM 37.0328 -84.3014 59° Northeast 487 560 39,000 435 Climbing Indianapolis Center
Sun 03:42:51 PM 37.0750 -84.1394 72° East 490 564 39,000  Level Indianapolis Center
Sun 03:43:54 PM 37.1142 -83.9781 73° East 485 558 39,000  Level Indianapolis Center
Sun 03:44:56 PM 37.1611 -83.7894 73° East 483 556 39,000  Level Indianapolis Center
Sun 03:45:58 PM 37.2011 -83.6269 73° East 485 558 39,000  Level Indianapolis Center
Sun 03:47:00 PM 37.2403 -83.4650 73° East 484 557 39,000  Level Indianapolis Center
Sun 03:48:02 PM 37.2797 -83.3025 73° East 484 557 39,000  Level Indianapolis Center
Sun 03:49:04 PM 37.3186 -83.1367 74° East 487 560 39,000  Level Indianapolis Center
Sun 03:50:06 PM 37.3583 -82.9731 73° East 485 558 39,000  Level Indianapolis Center
Sun 03:51:08 PM 37.3981 -82.8086 73° East 486 559 39,000  Level Indianapolis Center
Sun 03:52:10 PM 37.4433 -82.6161 73° East 488 562 39,000  Level Indianapolis Center
Sun 03:53:12 PM 37.4803 -82.4533 74° East 483 556 39,000  Level Indianapolis Center
Sun 03:54:14 PM 37.5181 -82.2900 74° East 483 556 39,000  Level Indianapolis Center
Sun 03:55:16 PM 37.5561 -82.1281 73° East 482 555 39,000  Level Indianapolis Center
Sun 03:56:18 PM 37.5936 -81.9658 74° East 481 554 39,000  Level Indianapolis Center
Sun 03:57:20 PM 37.6303 -81.8044 74° East 479 551 39,000  Level Indianapolis Center
Sun 03:58:22 PM 37.6728 -81.6161 74° East 478 550 39,000  Level Indianapolis Center
Sun 04:00:28 PM 37.7386 -81.3089 75° East 456 525 39,000 -130 Level Washington Center
Sun 04:01:26 PM 37.7761 -81.1306 75° East 465 535 38,600 -655 Descending Washington Center
Sun 04:02:27 PM 37.7900 -80.9658 84° East 471 542 37,700 -787 Descending Washington Center
Sun 04:03:28 PM 37.8017 -80.7986 85° East 476 548 37,000 -353 Descending Washington Center
Sun 04:04:26 PM 37.8131 -80.6283 85° East 476 548 37,000  Level Washington Center
Sun 04:05:26 PM 37.8239 -80.4633 85° East 476 548 37,000 -344 Level Washington Center
Sun 04:06:28 PM 37.8322 -80.3114 86° East 476 548 36,300 -800 Descending Washington Center
Sun 04:07:26 PM 37.8428 -80.1464 85° East 476 548 35,400 -958 Descending Washington Center
Sun 04:08:27 PM 37.8531 -79.9786 86° East 476 548 34,400 -1,140 Descending Washington Center
Sun 04:09:27 PM 37.8653 -79.8164 84° East 476 548 33,100 -694 Descending Washington Center
Sun 04:10:28 PM 37.8758 -79.6328 86° East 476 548 33,000 -50 Descending Washington Center
Sun 04:11:26 PM 37.8856 -79.4675 86° East 476 548 33,000  Level Washington Center
Sun 04:12:26 PM 37.8928 -79.3022 87° East 476 548 33,000  Level Washington Center
Sun 04:13:27 PM 37.9039 -79.1369 85° East 476 548 33,000  Level Washington Center
Sun 04:14:27 PM 37.9211 -78.9769 82° East 476 548 33,000 -198 Level Washington Center
Sun 04:15:28 PM 37.9381 -78.8197 82° East 465 535 32,600 -1,008 Descending Washington Center
Sun 04:16:26 PM 37.9564 -78.6706 81° East 460 529 31,000 -807 Descending Washington Center
Sun 04:17:27 PM 37.9750 -78.5131 81° East 465 535 31,000  Level Washington Center
Sun 04:18:28 PM 37.9956 -78.3481 81° East 465 535 31,000  Level Washington Center
Sun 04:19:28 PM 38.0142 -78.1719 82° East 465 535 31,000  Level Washington Center
Sun 04:20:27 PM 38.0644 -78.0550 61° Northeast 432 497 31,000  Level Washington Center
Sun 04:21:28 PM 38.1275 -77.9278 58° Northeast 426 490 31,000 -496 Level Washington Center
Sun 04:22:28 PM 38.1906 -77.7978 58° Northeast 420 483 30,000 -1,017 Descending Washington Center
Sun 04:23:26 PM 38.2511 -77.6753 58° Northeast 420 483 29,000 -504 Descending Washington Center
Sun 04:24:27 PM 38.3114 -77.5553 57° Northeast 415 478 29,000  Level Washington Center
Sun 04:25:28 PM 38.3719 -77.4297 58° Northeast 410 472 29,000 -99 Level Washington Center
Sun 04:26:28 PM 38.4300 -77.3064 59° Northeast 410 472 28,800 -508 Descending Washington Center
Sun 04:27:26 PM 38.4922 -77.1858 57° Northeast 410 472 28,000 -1,261 Descending Washington Center
Sun 04:28:27 PM 38.5500 -77.0650 59° Northeast 410 472 26,300 -1,289 Descending Washington Center
Sun 04:29:27 PM 38.6119 -76.9361 58° Northeast 410 472 25,400 -1,041 Descending Washington Center
Sun 04:30:28 PM 38.6717 -76.8122 58° Northeast 410 472 24,200 -1,140 Descending Washington Center
Sun 04:31:28 PM 38.7167 -76.6853 66° East 403 464 23,100 -1,068 Descending Washington Center
Sun 04:32:26 PM 38.7447 -76.5525 75° East 387 445 22,100 -1,008 Descending Washington Center
Sun 04:33:27 PM 38.7728 -76.4225 74° East 380 437 21,100 -1,377 Descending Washington Center
Sun 04:34:28 PM 38.7986 -76.2947 75° East 374 430 19,300 -1,866 Descending Washington Center
Sun 04:35:26 PM 38.8286 -76.1619 74° East 374 430 17,400 -2,118 Descending Washington Center
Sun 04:36:27 PM 38.8561 -76.0289 75° East 380 437 15,100 -1,180 Descending Washington Center
Sun 04:37:28 PM 38.8817 -75.8903 77° East 380 437 15,000 -50 Descending Washington Center
Sun 04:38:26 PM 38.9464 -75.7864 51° Northeast 367 422 15,000 -508 Level Washington Center
Sun 04:39:26 PM 39.0319 -75.7067 36° Northeast 367 422 14,000 -1,636 Descending Washington Center
Sun 04:40:27 PM 39.1281 -75.6692 17° North 351 404 11,700 -1,358 Descending Washington Center
Sun 04:42:36 PM 39.3333 -75.6167 11° North 286 329 9,700 -952 Descending Philadelphia TRACON
Sun 04:43:36 PM 39.4000 -75.5500 38° Northeast 289 333 8,700 -991 Descending Philadelphia TRACON
Sun 04:44:31 PM 39.4500 -75.4833 46° Northeast 284 327 7,800 -850 Descending Philadelphia TRACON
Sun 04:45:36 PM 39.5000 -75.4000 52° Northeast 280 322 7,000 -381 Descending Philadelphia TRACON
Sun 04:46:37 PM 39.5500 -75.3333 46° Northeast 238 274 7,000 -446 Level Philadelphia TRACON
Sun 04:47:37 PM 39.6000 -75.3167 14° North 246 283 6,100 -526 Descending Philadelphia TRACON
Sun 04:48:31 PM 39.6500 -75.3500 333° Northwest 212 244 6,000 -53 Descending Philadelphia TRACON
Sun 04:49:31 PM 39.7167 -75.3667 349° North 211 243 6,000  Level Philadelphia TRACON
Sun 04:50:43 PM 39.7167 -75.4500 270° West 208 239 6,000 -600 Level Philadelphia TRACON
Sun 04:51:31 PM 39.7167 -75.5000 270° West 213 245 4,800 -1,200 Descending Philadelphia TRACON
Sun 04:52:43 PM 39.7667 -75.5333 333° Northwest 202 232 3,600 -857 Descending Philadelphia TRACON
Sun 04:53:37 PM 39.8167 -75.5000 27° Northeast 197 227 3,000 -550 Descending Philadelphia TRACON
Sun 04:54:43 PM 39.8333 -75.4333 72° East 161 185 2,500 -650 Descending Philadelphia TRACON
Sun 04:55:37 PM 39.8333 -75.3833 90° East 164 189 1,700 -842 Descending Philadelphia TRACON
Sun 04:56:37 PM 39.8500 -75.3333 67° East 139 160 900 -744 Descending Philadelphia TRACON
Sun 04:57:38 PM 39.8667 -75.2833 67° East 131 151 200 -689 Descending Philadelphia TRACON
Sun 04:59:00 PM 39.8667 -75.2333 38° Northeast  Level FlightAware Approximate
Sun 05:06:00 PM 39.8722 -75.2409 38° Northeast  Level Estimated

Login

Don't have an account? Register now (free) for customized features, flight alerts, and more!